createdAt,value
2023-09-05T00:01:56.665Z,101749.63
2023-09-05T00:04:24.110Z,101742.69
2023-09-05T00:06:51.157Z,101739.19
2023-09-05T00:09:22.318Z,101735.84
2023-09-05T00:11:49.584Z,101732.28
2023-09-05T00:14:19.456Z,101731.44
2023-09-05T00:16:46.064Z,101730.63
2023-09-05T00:19:14.146Z,101731.50
2023-09-05T00:21:41.133Z,101730.63
2023-09-05T00:24:29.560Z,101729.69
2023-09-05T00:26:57.382Z,101715.75
2023-09-05T00:29:25.832Z,101724.59
2023-09-05T00:32:00.495Z,101725.53
2023-09-05T00:34:29.111Z,101718.56
2023-09-05T00:36:56.460Z,101728.25
2023-09-05T00:39:23.339Z,101730.91
2023-09-05T00:41:50.234Z,101722.22
2023-09-05T00:44:18.974Z,101726.63
2023-09-05T00:46:47.124Z,101726.69
2023-09-05T00:49:16.962Z,101723.22
2023-09-05T00:51:51.942Z,101720.59
2023-09-05T00:54:19.798Z,101717.19
2023-09-05T00:56:47.186Z,101732.13
2023-09-05T00:59:14.586Z,101734.84
2023-09-05T01:01:41.911Z,101738.47
2023-09-05T01:04:09.234Z,101736.72
2023-09-05T01:06:47.943Z,101731.50
2023-09-05T01:09:39.396Z,101729.75
2023-09-05T01:12:08.412Z,101731.56
2023-09-05T01:14:35.384Z,101728.16
2023-09-05T01:17:02.689Z,101735.22
2023-09-05T01:19:31.031Z,101729.09
2023-09-05T01:22:00.917Z,101730.00
2023-09-05T01:24:28.132Z,101737.06
2023-09-05T01:26:57.027Z,101732.66
2023-09-05T01:29:42.930Z,101729.16
2023-09-05T01:32:10.605Z,101724.78
2023-09-05T01:34:38.634Z,101732.69
2023-09-05T01:37:05.575Z,101722.19
2023-09-05T01:39:32.982Z,101721.41
2023-09-05T01:42:00.386Z,101721.41
2023-09-05T01:44:27.491Z,101715.22
2023-09-05T01:46:54.902Z,101710.00
2023-09-05T01:49:22.504Z,101710.94
2023-09-05T01:51:49.543Z,101708.25
2023-09-05T01:54:16.405Z,101705.66
2023-09-05T01:56:43.639Z,101703.84
2023-09-05T01:59:11.375Z,101694.19
2023-09-05T02:01:38.273Z,101694.13
2023-09-05T02:04:05.666Z,101703.78
2023-09-05T02:06:32.772Z,101709.94
2023-09-05T02:08:59.652Z,101714.34
2023-09-05T02:11:26.611Z,101714.28
2023-09-05T02:13:53.968Z,101720.38
2023-09-05T02:16:20.892Z,101719.50
2023-09-05T02:18:50.701Z,101720.38
2023-09-05T02:21:18.883Z,101721.25
2023-09-05T02:23:46.603Z,101728.28
2023-09-05T02:26:14.274Z,101726.56
2023-09-05T02:28:41.534Z,101724.81
2023-09-05T02:31:08.925Z,101732.75
2023-09-05T02:33:37.799Z,101730.16
2023-09-05T02:36:16.638Z,101733.78
2023-09-05T02:38:44.223Z,101733.78
2023-09-05T02:41:16.217Z,101730.38
2023-09-05T02:43:44.627Z,101732.19
2023-09-05T02:46:11.962Z,101726.94
2023-09-05T02:48:40.572Z,101734.00
2023-09-05T02:51:09.905Z,101735.75
2023-09-05T02:53:37.599Z,101729.63
2023-09-05T02:56:05.500Z,101728.78
2023-09-05T02:58:33.367Z,101728.81
2023-09-05T03:01:02.310Z,101738.47
2023-09-05T03:03:30.204Z,101737.66
2023-09-05T03:06:07.890Z,101733.31
2023-09-05T03:08:36.190Z,101721.13
2023-09-05T03:11:03.692Z,101729.91
2023-09-05T03:13:31.079Z,101732.53
2023-09-05T03:15:59.068Z,101732.53
2023-09-05T03:18:26.642Z,101736.03
2023-09-05T03:20:53.788Z,101741.31
2023-09-05T03:23:23.512Z,101731.75
2023-09-05T03:25:50.844Z,101736.09
2023-09-05T03:28:17.810Z,101732.63
2023-09-05T03:30:44.470Z,101728.25
2023-09-05T03:33:11.485Z,101734.38
2023-09-05T03:35:38.317Z,101730.88
2023-09-05T03:38:08.292Z,101737.91
2023-09-05T03:40:36.183Z,101726.50
2023-09-05T03:43:02.971Z,101733.50
2023-09-05T03:45:31.885Z,101726.50
2023-09-05T03:48:01.923Z,101727.41
2023-09-05T03:50:30.349Z,101725.66
2023-09-05T03:52:57.565Z,101722.19
2023-09-05T03:55:24.740Z,101729.22
2023-09-05T03:57:51.405Z,101724.00
2023-09-05T04:00:18.605Z,101725.75
2023-09-05T04:02:46.745Z,101727.56
2023-09-05T04:05:14.771Z,101732.88
2023-09-05T04:07:43.244Z,101730.25
2023-09-05T04:10:10.378Z,101725.84
2023-09-05T04:12:38.678Z,101724.97
2023-09-05T04:15:06.427Z,101729.41
2023-09-05T04:17:34.312Z,101721.56
2023-09-05T04:20:02.222Z,101718.94
2023-09-05T04:22:29.198Z,101721.63
2023-09-05T04:24:56.808Z,101719.81
2023-09-05T04:27:25.015Z,101724.19
2023-09-05T04:29:55.274Z,101718.09
2023-09-05T04:32:29.930Z,101718.09
2023-09-05T04:35:04.866Z,101722.50
2023-09-05T04:37:32.986Z,101726.03
2023-09-05T04:40:01.897Z,101730.41
2023-09-05T04:42:29.334Z,101724.28
2023-09-05T04:44:56.475Z,101728.69
2023-09-05T04:47:29.208Z,101729.56
2023-09-05T04:49:59.269Z,101734.81
2023-09-05T04:52:29.110Z,101734.78
2023-09-05T04:54:57.667Z,101732.97
2023-09-05T04:57:25.352Z,101732.97
2023-09-05T04:59:58.749Z,101735.66
2023-09-05T05:02:26.830Z,101739.13
2023-09-05T05:04:55.124Z,101748.81
2023-09-05T05:07:22.553Z,101744.44
2023-09-05T05:09:49.428Z,101748.81
2023-09-05T05:12:17.071Z,101744.44
2023-09-05T05:14:44.257Z,101741.78
2023-09-05T05:17:14.514Z,101741.75
2023-09-05T05:19:41.927Z,101752.25
2023-09-05T05:22:08.696Z,101750.44
2023-09-05T05:24:35.580Z,101746.06
2023-09-05T05:27:03.106Z,101744.25
2023-09-05T05:29:34.035Z,101738.09
2023-09-05T05:32:02.098Z,101750.31
2023-09-05T05:34:31.265Z,101752.03
2023-09-05T05:36:58.705Z,101749.41
2023-09-05T05:39:26.728Z,101757.25
2023-09-05T05:41:54.180Z,101759.84
2023-09-05T05:44:21.598Z,101762.44
2023-09-05T05:46:48.583Z,101765.94
2023-09-05T05:49:16.141Z,101765.88
2023-09-05T05:51:43.295Z,101764.09
2023-09-05T05:54:10.922Z,101758.78
2023-09-05T05:56:38.731Z,101759.59
2023-09-05T05:59:07.598Z,101752.53
2023-09-05T06:01:35.323Z,101763.91
2023-09-05T06:04:02.942Z,101760.34
2023-09-05T06:06:30.378Z,101759.41
2023-09-05T06:08:58.065Z,101756.69
2023-09-05T06:11:25.694Z,101760.97
2023-09-05T06:13:53.543Z,101759.09
2023-09-05T06:16:21.948Z,101763.44
2023-09-05T06:18:49.284Z,101758.03
2023-09-05T06:21:16.301Z,101759.69
2023-09-05T06:23:43.566Z,101760.44
2023-09-05T06:26:10.570Z,101762.03
2023-09-05T06:28:37.899Z,101761.09
2023-09-05T06:31:06.589Z,101768.00
2023-09-05T06:33:33.582Z,101769.59
2023-09-05T06:36:06.452Z,101760.72
2023-09-05T06:38:34.583Z,101765.88
2023-09-05T06:41:06.691Z,101767.50
2023-09-05T06:43:33.823Z,101763.91
2023-09-05T06:46:04.482Z,101772.56
2023-09-05T06:48:31.804Z,101768.91
2023-09-05T06:50:59.981Z,101772.25
2023-09-05T06:53:29.338Z,101773.84
2023-09-05T06:55:56.756Z,101769.28
2023-09-05T06:58:25.259Z,101769.97
2023-09-05T07:00:56.779Z,101771.59
2023-09-05T07:03:25.275Z,101769.63
2023-09-05T07:06:05.804Z,101776.53
2023-09-05T07:08:34.134Z,101772.84
2023-09-05T07:11:01.379Z,101771.75
2023-09-05T07:13:28.309Z,101772.31
2023-09-05T07:15:57.823Z,101774.63
2023-09-05T07:18:25.705Z,101775.81
2023-09-05T07:20:53.245Z,101770.97
2023-09-05T07:23:20.421Z,101772.28
2023-09-05T07:25:47.372Z,101772.53
2023-09-05T07:28:14.483Z,101776.44
2023-09-05T07:30:41.937Z,101768.03
2023-09-05T07:33:09.625Z,101767.66
2023-09-05T07:35:37.580Z,101766.28
2023-09-05T07:38:05.209Z,101763.34
2023-09-05T07:40:32.161Z,101770.88
2023-09-05T07:43:01.712Z,101759.09
2023-09-05T07:45:29.561Z,101769.28
2023-09-05T07:47:58.050Z,101759.06
2023-09-05T07:50:25.510Z,101761.19
2023-09-05T07:52:52.692Z,101757.19
2023-09-05T07:55:19.564Z,101757.72
2023-09-05T07:57:46.666Z,101757.59
2023-09-05T08:00:16.709Z,101755.56
2023-09-05T08:02:44.083Z,101753.19
2023-09-05T08:05:10.880Z,101765.22
2023-09-05T08:07:41.610Z,101757.81
2023-09-05T08:10:09.393Z,101766.38
2023-09-05T08:12:36.124Z,101761.75
2023-09-05T08:15:04.006Z,101761.59
2023-09-05T08:17:31.721Z,101759.25
2023-09-05T08:19:59.860Z,101761.53
2023-09-05T08:22:26.842Z,101749.63
2023-09-05T08:24:54.194Z,101749.81
2023-09-05T08:27:21.125Z,101752.41
2023-09-05T08:29:48.227Z,101747.84
2023-09-05T08:32:15.232Z,101750.31
2023-09-05T08:34:42.457Z,101747.34
2023-09-05T08:37:09.592Z,101740.34
2023-09-05T08:39:38.053Z,101747.91
2023-09-05T08:42:07.642Z,101740.16
2023-09-05T08:44:44.707Z,101733.50
2023-09-05T08:47:11.565Z,101727.34
2023-09-05T08:49:39.746Z,101732.41
2023-09-05T08:52:07.904Z,101731.44
2023-09-05T08:54:34.848Z,101735.34
2023-09-05T08:57:04.528Z,101733.88
2023-09-05T08:59:33.159Z,101724.00
2023-09-05T09:02:01.733Z,101730.28
2023-09-05T09:04:30.485Z,101727.47
2023-09-05T09:07:01.651Z,101716.69
2023-09-05T09:09:42.369Z,101722.41
2023-09-05T09:12:11.260Z,101722.28
2023-09-05T09:14:37.925Z,101725.59
2023-09-05T09:17:06.363Z,101727.03
2023-09-05T09:19:33.872Z,101720.47
2023-09-05T09:22:03.914Z,101722.84
2023-09-05T09:24:35.514Z,101731.38
2023-09-05T09:27:04.384Z,101726.81
2023-09-05T09:29:32.238Z,101727.50
2023-09-05T09:32:08.810Z,101730.28
2023-09-05T09:37:04.823Z,101731.59
2023-09-05T09:39:33.605Z,101727.94
2023-09-05T09:42:02.254Z,101727.94
2023-09-05T09:44:36.295Z,101733.28
2023-09-05T09:47:03.899Z,101720.44
2023-09-05T09:49:31.720Z,101725.63
2023-09-05T09:52:05.201Z,101718.09
2023-09-05T09:54:39.794Z,101715.50
2023-09-05T09:57:09.724Z,101713.16
2023-09-05T09:59:44.636Z,101712.13
2023-09-05T10:02:15.754Z,101710.91
2023-09-05T10:04:44.766Z,101705.41
2023-09-05T10:07:15.878Z,101703.66
2023-09-05T10:09:44.332Z,101704.84
2023-09-05T10:12:12.337Z,101705.69
2023-09-05T10:14:41.764Z,101704.91
2023-09-05T10:17:10.805Z,101710.25
2023-09-05T10:19:39.259Z,101706.66
2023-09-05T10:22:06.562Z,101708.69
2023-09-05T10:24:35.831Z,101703.94
2023-09-05T10:27:05.025Z,101705.19
2023-09-05T10:29:44.967Z,101708.47
2023-09-05T10:32:18.111Z,101708.47
2023-09-05T10:34:48.032Z,101709.09
2023-09-05T10:37:23.278Z,101709.56
2023-09-05T10:39:51.843Z,101704.31
2023-09-05T10:42:28.666Z,101700.97
2023-09-05T10:44:57.186Z,101702.53
2023-09-05T10:47:26.452Z,101697.34
2023-09-05T10:50:07.533Z,101700.63
2023-09-05T10:52:35.441Z,101687.88
2023-09-05T10:55:30.436Z,101691.84
2023-09-05T10:57:57.698Z,101698.22
2023-09-05T11:00:28.134Z,101704.16
2023-09-05T11:02:57.300Z,101697.69
2023-09-05T11:05:28.393Z,101683.22
2023-09-05T11:07:56.410Z,101676.81
2023-09-05T11:10:30.283Z,101674.75
2023-09-05T11:13:08.174Z,101672.84
2023-09-05T11:15:39.128Z,101674.22
2023-09-05T11:18:10.001Z,101668.84
2023-09-05T11:20:54.833Z,101673.66
2023-09-05T11:23:27.056Z,101667.69
2023-09-05T11:25:57.080Z,101671.06
2023-09-05T11:28:25.249Z,101666.56
2023-09-05T11:30:56.500Z,101663.28
2023-09-05T11:33:26.301Z,101662.03
2023-09-05T11:35:53.536Z,101662.22
2023-09-05T11:38:22.430Z,101660.13
2023-09-05T11:40:58.839Z,101645.03
2023-09-05T11:43:26.411Z,101651.59
2023-09-05T11:45:56.261Z,101649.69
2023-09-05T11:48:25.744Z,101647.97
2023-09-05T11:50:53.699Z,101635.50
2023-09-05T11:53:22.214Z,101634.94
2023-09-05T11:55:49.279Z,101642.03
2023-09-05T11:58:20.463Z,101636.28
2023-09-05T12:00:51.820Z,101625.56
2023-09-05T12:03:19.017Z,101635.72
2023-09-05T12:05:53.363Z,101633.63
2023-09-05T12:08:29.752Z,101626.34
2023-09-05T12:11:02.708Z,101625.75
2023-09-05T12:13:40.630Z,101634.38
2023-09-05T12:16:09.702Z,101633.31
2023-09-05T12:18:40.380Z,101631.31
2023-09-05T12:21:08.675Z,101624.03
2023-09-05T12:23:36.160Z,101622.09
2023-09-05T12:26:05.017Z,101621.50
2023-09-05T12:28:32.246Z,101624.34
2023-09-05T12:31:11.818Z,101623.28
2023-09-05T12:33:40.028Z,101614.75
2023-09-05T12:36:08.175Z,101626.94
2023-09-05T12:38:35.147Z,101615.41
2023-09-05T12:41:03.258Z,101623.00
2023-09-05T12:43:30.464Z,101620.47
2023-09-05T12:45:57.520Z,101622.81
2023-09-05T12:48:24.337Z,101616.81
2023-09-05T12:50:52.929Z,101625.25
2023-09-05T12:53:21.109Z,101615.59
2023-09-05T12:55:49.978Z,101608.06
2023-09-05T12:58:17.139Z,101602.84
2023-09-05T13:00:44.485Z,101604.66
2023-09-05T13:03:13.070Z,101605.09
2023-09-05T13:05:41.762Z,101600.22
2023-09-05T13:08:10.360Z,101605.03
2023-09-05T13:10:38.046Z,101607.56
2023-09-05T13:13:08.178Z,101603.28
2023-09-05T13:15:36.700Z,101600.94
2023-09-05T13:18:04.324Z,101605.69
2023-09-05T13:20:33.666Z,101601.50
2023-09-05T13:23:01.139Z,101595.50
2023-09-05T13:25:33.473Z,101599.22
2023-09-05T13:28:07.037Z,101598.63
2023-09-05T13:30:35.417Z,101593.50
2023-09-05T13:33:02.574Z,101590.84
2023-09-05T13:35:29.511Z,101583.63
2023-09-05T13:37:57.004Z,101580.81
2023-09-05T13:40:23.926Z,101578.53
2023-09-05T13:42:51.138Z,101572.13
2023-09-05T13:45:20.832Z,101581.25
2023-09-05T13:47:47.856Z,101573.25
2023-09-05T13:50:20.607Z,101577.81
2023-09-05T13:52:49.536Z,101572.06
2023-09-05T13:55:16.830Z,101560.19
2023-09-05T13:57:46.727Z,101566.84
2023-09-05T14:00:14.165Z,101561.06
2023-09-05T14:02:42.042Z,101559.00
2023-09-05T14:05:11.541Z,101564.38
2023-09-05T14:07:41.656Z,101561.50
2023-09-05T14:10:13.785Z,101555.72
2023-09-05T14:12:41.590Z,101557.09
2023-09-05T14:15:09.250Z,101559.84
2023-09-05T14:17:36.530Z,101543.72
2023-09-05T14:20:04.114Z,101540.53
2023-09-05T14:22:31.989Z,101540.19
2023-09-05T14:24:58.985Z,101537.09
2023-09-05T14:27:25.881Z,101539.84
2023-09-05T14:29:53.177Z,101538.50
2023-09-05T14:32:20.423Z,101539.19
2023-09-05T14:34:52.434Z,101531.16
2023-09-05T14:37:20.364Z,101540.88
2023-09-05T14:39:47.070Z,101540.22
2023-09-05T14:42:14.281Z,101543.63
2023-09-05T14:44:42.978Z,101546.31
2023-09-05T14:47:11.472Z,101549.03
2023-09-05T14:49:40.985Z,101537.78
2023-09-05T14:52:08.129Z,101543.09
2023-09-05T14:54:35.310Z,101540.22
2023-09-05T14:57:03.192Z,101531.50
2023-09-05T14:59:30.373Z,101532.66
2023-09-05T15:01:58.446Z,101533.56
2023-09-05T15:04:25.785Z,101533.00
2023-09-05T15:06:53.153Z,101534.00
2023-09-05T15:09:22.230Z,101531.22
2023-09-05T15:11:49.562Z,101529.59
2023-09-05T15:14:17.112Z,101525.53
2023-09-05T15:16:45.666Z,101523.00
2023-09-05T15:19:12.905Z,101513.94
2023-09-05T15:21:42.810Z,101508.53
2023-09-05T15:24:12.139Z,101508.84
2023-09-05T15:26:39.747Z,101507.06
2023-09-05T15:29:09.169Z,101511.16
2023-09-05T15:31:36.035Z,101502.00
2023-09-05T15:34:03.381Z,101497.09
2023-09-05T15:36:30.551Z,101495.41
2023-09-05T15:38:59.217Z,101498.81
2023-09-05T15:41:26.330Z,101503.78
2023-09-05T15:43:53.117Z,101500.19
2023-09-05T15:46:20.363Z,101500.56
2023-09-05T15:48:47.168Z,101496.63
2023-09-05T15:51:14.798Z,101495.75
2023-09-05T15:53:44.255Z,101494.09
2023-09-05T15:56:11.618Z,101487.97
2023-09-05T15:58:38.495Z,101493.13
2023-09-05T16:01:05.432Z,101495.47
2023-09-05T16:03:32.412Z,101492.81
2023-09-05T16:06:00.331Z,101498.88
2023-09-05T16:08:30.997Z,101493.41
2023-09-05T16:11:14.835Z,101494.81
2023-09-05T16:13:42.380Z,101500.94
2023-09-05T16:16:09.973Z,101509.50
2023-09-05T16:18:37.568Z,101502.66
2023-09-05T16:21:08.078Z,101506.31
2023-09-05T16:23:35.628Z,101502.34
2023-09-05T16:26:02.822Z,101506.97
2023-09-05T16:28:30.732Z,101504.16
2023-09-05T16:30:58.478Z,101501.25
2023-09-05T16:33:29.110Z,101498.16
2023-09-05T16:36:04.528Z,101493.25
2023-09-05T16:38:35.698Z,101490.19
2023-09-05T16:41:10.519Z,101489.25
2023-09-05T16:43:38.429Z,101493.91
2023-09-05T16:46:05.885Z,101492.56
2023-09-05T16:48:33.075Z,101496.28
2023-09-05T16:51:00.995Z,101498.13
2023-09-05T16:53:28.630Z,101500.47
2023-09-05T16:55:55.631Z,101499.34
2023-09-05T16:58:22.598Z,101498.44
2023-09-05T17:00:49.702Z,101506.47
2023-09-05T17:03:17.374Z,101508.63
2023-09-05T17:05:44.381Z,101508.25
2023-09-05T17:08:11.906Z,101505.78
2023-09-05T17:10:38.557Z,101512.56
2023-09-05T17:13:06.122Z,101513.38
2023-09-05T17:15:33.208Z,101507.41
2023-09-05T17:18:00.180Z,101513.31
2023-09-05T17:20:27.659Z,101515.16
2023-09-05T17:22:54.790Z,101517.03
2023-09-05T17:25:21.790Z,101513.81
2023-09-05T17:27:48.832Z,101512.91
2023-09-05T17:30:16.212Z,101516.31
2023-09-05T17:32:43.342Z,101520.81
2023-09-05T17:35:11.627Z,101519.97
2023-09-05T17:37:41.452Z,101514.59
2023-09-05T17:40:10.280Z,101520.38
2023-09-05T17:42:37.590Z,101521.38
2023-09-05T17:45:05.403Z,101518.44
2023-09-05T17:47:34.156Z,101515.25
2023-09-05T17:50:02.344Z,101522.34
2023-09-05T17:52:30.145Z,101519.59
2023-09-05T17:54:57.251Z,101530.47
2023-09-05T17:57:24.275Z,101535.94
2023-09-05T17:59:51.356Z,101532.34
2023-09-05T18:02:18.606Z,101540.41
2023-09-05T18:04:46.998Z,101544.78
2023-09-05T18:07:13.877Z,101548.31
2023-09-05T18:09:40.833Z,101552.97
2023-09-05T18:12:07.917Z,101551.00
2023-09-05T18:14:37.941Z,101554.31
2023-09-05T18:17:04.868Z,101553.53
2023-09-05T18:19:32.779Z,101551.59
2023-09-05T18:21:59.866Z,101545.84
2023-09-05T18:24:27.444Z,101548.88
2023-09-05T18:26:54.231Z,101545.53
2023-09-05T18:29:23.184Z,101555.03
2023-09-05T18:31:50.205Z,101547.47
2023-09-05T18:34:36.273Z,101563.16
2023-09-05T18:37:05.525Z,101557.63
2023-09-05T18:39:33.728Z,101560.00
2023-09-05T18:42:06.876Z,101559.47
2023-09-05T18:44:39.725Z,101565.16
2023-09-05T18:47:08.769Z,101574.41
2023-09-05T18:49:37.426Z,101575.75
2023-09-05T18:52:07.193Z,101574.34
2023-09-05T18:54:35.695Z,101581.06
2023-09-05T18:57:04.267Z,101571.78
2023-09-05T18:59:32.964Z,101567.88
2023-09-05T19:02:01.761Z,101575.25
2023-09-05T19:04:29.894Z,101585.38
2023-09-05T19:07:03.242Z,101581.22
2023-09-05T19:09:31.210Z,101579.94
2023-09-05T19:11:58.509Z,101576.78
2023-09-05T19:14:25.626Z,101579.84
2023-09-05T19:16:55.830Z,101584.63
2023-09-05T19:19:24.890Z,101576.13
2023-09-05T19:21:54.271Z,101571.97
2023-09-05T19:24:21.781Z,101577.81
2023-09-05T19:26:52.357Z,101569.25
2023-09-05T19:29:19.521Z,101574.81
2023-09-05T19:31:46.873Z,101565.50
2023-09-05T19:34:14.065Z,101568.38
2023-09-05T19:36:41.519Z,101565.06
2023-09-05T19:39:10.200Z,101566.09
2023-09-05T19:41:38.586Z,101575.16
2023-09-05T19:44:05.987Z,101569.97
2023-09-05T19:46:33.348Z,101571.03
2023-09-05T19:49:00.568Z,101564.06
2023-09-05T19:51:28.068Z,101559.59
2023-09-05T19:53:55.349Z,101559.59
2023-09-05T19:56:22.259Z,101566.81
2023-09-05T19:58:49.460Z,101558.16
2023-09-05T20:01:16.866Z,101565.38
2023-09-05T20:03:43.858Z,101557.53
2023-09-05T20:06:12.746Z,101565.56
2023-09-05T20:08:40.791Z,101564.84
2023-09-05T20:11:07.725Z,101558.72
2023-09-05T20:13:35.641Z,101556.22
2023-09-05T20:16:02.935Z,101555.53
2023-09-05T20:18:30.057Z,101559.44
2023-09-05T20:20:59.673Z,101553.44
2023-09-05T20:23:27.337Z,101554.66
2023-09-05T20:25:54.666Z,101554.88
2023-09-05T20:28:22.071Z,101553.31
2023-09-05T20:30:57.460Z,101546.53
2023-09-05T20:33:24.509Z,101550.25
2023-09-05T20:35:52.846Z,101561.03
2023-09-05T20:38:21.251Z,101560.75
2023-09-05T20:40:49.397Z,101553.59
2023-09-05T20:43:18.264Z,101556.16
2023-09-05T20:45:45.814Z,101552.50
2023-09-05T20:48:13.235Z,101561.44
2023-09-05T20:50:40.622Z,101560.63
2023-09-05T20:53:08.889Z,101566.09
2023-09-05T20:55:36.438Z,101567.97
2023-09-05T20:58:05.969Z,101563.03
2023-09-05T21:00:33.013Z,101559.56
2023-09-05T21:03:00.468Z,101565.03
2023-09-05T21:05:32.906Z,101567.03
2023-09-05T21:08:00.400Z,101570.75
2023-09-05T21:10:28.573Z,101573.66
2023-09-05T21:12:56.346Z,101581.78
2023-09-05T21:15:24.332Z,101577.50
2023-09-05T21:17:52.319Z,101578.56
2023-09-05T21:20:19.372Z,101576.84
2023-09-05T21:22:47.162Z,101580.56
2023-09-05T21:25:15.026Z,101583.34
2023-09-05T21:27:42.537Z,101584.25
2023-09-05T21:30:11.001Z,101579.06
2023-09-05T21:32:39.883Z,101573.06
2023-09-05T21:35:08.354Z,101578.38
2023-09-05T21:37:35.647Z,101573.97
2023-09-05T21:40:04.295Z,101569.59
2023-09-05T21:42:31.786Z,101563.34
2023-09-05T21:45:00.128Z,101566.88
2023-09-05T21:47:27.383Z,101570.41
2023-09-05T21:49:54.362Z,101569.66
2023-09-05T21:52:21.506Z,101574.09
2023-09-05T21:54:48.898Z,101577.75
2023-09-05T21:57:15.949Z,101570.03
2023-09-05T21:59:45.097Z,101573.69
2023-09-05T22:02:14.238Z,101571.22
2023-09-05T22:04:44.210Z,101576.81
2023-09-05T22:07:11.426Z,101568.25
2023-09-05T22:09:39.872Z,101568.69
2023-09-05T22:12:08.703Z,101585.78
2023-09-05T22:14:35.919Z,101578.31
2023-09-05T22:17:02.919Z,101585.66
2023-09-05T22:19:33.262Z,101592.09
2023-09-05T22:22:06.548Z,101591.66
2023-09-05T22:24:34.184Z,101598.94
2023-09-05T22:27:04.419Z,101610.84
2023-09-05T22:29:36.540Z,101613.84
2023-09-05T22:32:04.190Z,101610.53
2023-09-05T22:34:31.914Z,101614.31
2023-09-05T22:36:59.161Z,101612.00
2023-09-05T22:39:26.478Z,101615.84
2023-09-05T22:41:53.633Z,101611.72
2023-09-05T22:44:20.694Z,101612.91
2023-09-05T22:46:47.711Z,101610.38
2023-09-05T22:49:14.618Z,101610.59
2023-09-05T22:51:42.285Z,101613.47
2023-09-05T22:54:10.586Z,101614.56
2023-09-05T22:56:40.857Z,101609.34
2023-09-05T22:59:08.026Z,101613.91
2023-09-05T23:01:35.171Z,101611.38
2023-09-05T23:04:03.154Z,101618.63
2023-09-05T23:06:30.566Z,101612.47
2023-09-05T23:08:58.328Z,101613.53
2023-09-05T23:11:26.273Z,101614.63
2023-09-05T23:13:53.423Z,101613.06
2023-09-05T23:16:20.844Z,101606.97
2023-09-05T23:18:51.314Z,101610.63
2023-09-05T23:21:22.129Z,101608.28
2023-09-05T23:23:49.995Z,101613.69
2023-09-05T23:26:17.114Z,101618.19
2023-09-05T23:28:43.960Z,101609.50
2023-09-05T23:31:11.019Z,101613.25
2023-09-05T23:33:39.720Z,101621.19
2023-09-05T23:36:06.808Z,101618.81
2023-09-05T23:38:36.611Z,101616.19
2023-09-05T23:41:07.397Z,101625.16
2023-09-05T23:43:34.252Z,101620.84
2023-09-05T23:46:01.536Z,101626.28
2023-09-05T23:48:33.022Z,101630.75
2023-09-05T23:51:02.024Z,101636.09
2023-09-05T23:53:30.282Z,101634.44
2023-09-05T23:55:57.615Z,101635.50
2023-09-05T23:58:24.804Z,101638.28
